Hauptseite
METAR-TAF:

METAR-TAF

Flughäfen :

Flughafen Isle of Man

Isle of Man,

Breite: 54-05N, Länge: 004-38W, Höhe: 17 m

Beobachtung

Neuester Wetterbericht von vor 29 Minuten, um 18:50 UTC
Wind 4 kt aus Nordwest, variierte zwischen West und Nord
Temperatur 17°C
Luftfeuchtigkeit 68%
Luftdruck 1018 hPa
Sichtweite 10 km oder mehr
Leicht bewölkt in der Höhe von 1700 ft
Aufgelockert bewölkt in der Höhe von 4000 ft

METAR: EGNS 191850Z 31004KT 280V010 9999 FEW017 SCT040 17/11 Q1018 NOSIG

Zeit: 20:19 (19:19 UTC)

Prognose

Neuester Wetterbericht von vor 2 Stunden und 19 Minuten, um 17:00 UTC
Gültige Prognose vom 19 um 18 UTC bis 19 um 21 UTC
Wind 6 kt aus Nordwest
Sichtweite 10 km oder mehr
Leicht bewölkt in der Höhe von 1700 ft
Aufgelockert bewölkt in der Höhe von 2300 ft
Durchbrochene Bewölkung in der Höhe von 3300 ft

TAF: EGNS 191700Z 1918/1921 32006KT 9999 FEW017 SCT023 BKN033

Wetterbeobachtungen und Prognosen von mehr als 4000 Flughäfen (METAR und TAF Bericht).

Die verfügbaren Stationen werden durch gelbe und rote Markierungen auf der Karte dargestellt.

Führen Sie die Maus auf sie, um den Namen der Station zu sehen.

Darauf klicken, um die Beobachtung von Wetterbeobachtungen und Prognosen zu sehen.

Um die Karte zu ändern : klicken Sie auf den grünen Tasten mit einem schwarzen Kreuz Zum Vergrößern, auf den grünen Button mit einem Gedankenstrich zu verkleinern, oder auf die grünen Pfeile für benachbarte Karten.


METAR-TAF: